createdAt,value
2018-09-22T00:00:18.928Z,14.36
2018-09-22T00:01:18.868Z,14.27
2018-09-22T00:02:18.868Z,14.22
2018-09-22T00:03:18.802Z,14.24
2018-09-22T00:04:18.767Z,14.28
2018-09-22T00:05:18.716Z,14.18
2018-09-22T00:06:18.678Z,14.21
2018-09-22T00:07:18.651Z,14.09
2018-09-22T00:08:18.626Z,14.15
2018-09-22T00:09:18.558Z,14.10
2018-09-22T00:10:18.514Z,14.09
2018-09-22T00:11:18.487Z,14.10
2018-09-22T00:12:18.459Z,14.03
2018-09-22T00:13:18.406Z,14.07
2018-09-22T00:14:18.357Z,14.09
2018-09-22T00:15:18.308Z,14.09
2018-09-22T00:16:18.275Z,14.09
2018-09-22T00:17:18.228Z,14.07
2018-09-22T00:18:18.223Z,14.09
2018-09-22T00:19:18.174Z,14.02
2018-09-22T00:20:18.147Z,14.02
2018-09-22T00:21:18.080Z,14.04
2018-09-22T00:22:18.047Z,14.04
2018-09-22T00:23:18.035Z,14.04
2018-09-22T00:24:17.943Z,14.04
2018-09-22T00:25:17.898Z,14.04
2018-09-22T00:26:17.860Z,14.20
2018-09-22T00:27:17.875Z,14.24
2018-09-22T00:28:17.844Z,14.10
2018-09-22T00:29:17.745Z,14.29
2018-09-22T00:30:17.730Z,14.22
2018-09-22T00:31:17.683Z,14.21
2018-09-22T00:32:17.633Z,14.25
2018-09-22T00:33:17.594Z,14.17
2018-09-22T00:34:17.570Z,14.25
2018-09-22T00:35:17.524Z,14.20
2018-09-22T00:36:17.460Z,14.21
2018-09-22T00:37:17.416Z,14.21
2018-09-22T00:38:17.378Z,14.25
2018-09-22T00:39:17.368Z,14.24
2018-09-22T00:40:17.333Z,14.22
2018-09-22T00:41:17.270Z,14.22
2018-09-22T00:42:17.247Z,14.27
2018-09-22T00:43:17.202Z,14.25
2018-09-22T00:44:17.184Z,14.21
2018-09-22T00:45:17.107Z,14.17
2018-09-22T00:46:17.066Z,14.18
2018-09-22T00:47:17.017Z,14.12
2018-09-22T00:48:16.981Z,14.15
2018-09-22T00:49:16.941Z,14.14
2018-09-22T00:50:16.928Z,14.18
2018-09-22T00:51:16.868Z,14.12
2018-09-22T00:52:16.840Z,14.18
2018-09-22T00:53:16.791Z,14.18
2018-09-22T00:54:16.760Z,14.12
2018-09-22T00:55:16.724Z,14.15
2018-09-22T00:56:16.679Z,14.15
2018-09-22T00:57:16.633Z,14.14
2018-09-22T00:58:16.584Z,14.17
2018-09-22T00:59:16.538Z,14.15
2018-09-22T01:00:16.540Z,14.21
2018-09-22T01:01:16.481Z,14.15
2018-09-22T01:02:16.441Z,14.20
2018-09-22T01:03:16.411Z,14.14
2018-09-22T01:04:16.336Z,14.17
2018-09-22T01:05:16.351Z,14.20
2018-09-22T01:06:16.271Z,14.10
2018-09-22T01:07:16.240Z,14.14
2018-09-22T01:08:16.184Z,14.10
2018-09-22T01:09:16.157Z,14.07
2018-09-22T01:10:16.159Z,14.03
2018-09-22T01:11:16.055Z,14.06
2018-09-22T01:12:16.024Z,13.96
2018-09-22T01:13:15.996Z,13.97
2018-09-22T01:14:15.939Z,13.87
2018-09-22T01:15:15.958Z,13.81
2018-09-22T01:16:15.855Z,13.82
2018-09-22T01:17:15.809Z,13.73
2018-09-22T01:18:15.794Z,13.70
2018-09-22T01:19:15.757Z,13.69
2018-09-22T01:20:15.738Z,13.64
2018-09-22T01:21:15.662Z,13.64
2018-09-22T01:22:15.625Z,13.57
2018-09-22T01:23:15.573Z,13.52
2018-09-22T01:24:15.540Z,13.48
2018-09-22T01:25:15.502Z,13.49
2018-09-22T01:26:15.483Z,13.48
2018-09-22T01:27:15.433Z,13.52
2018-09-22T01:28:15.368Z,13.54
2018-09-22T01:29:15.347Z,13.51
2018-09-22T01:30:15.298Z,13.52
2018-09-22T01:31:15.288Z,13.49
2018-09-22T01:32:15.239Z,13.49
2018-09-22T01:33:25.241Z,13.49
2018-09-22T01:34:15.134Z,13.46
2018-09-22T01:35:15.088Z,13.48
2018-09-22T01:36:15.095Z,13.42
2018-09-22T01:37:15.065Z,13.39
2018-09-22T01:38:15.022Z,13.36
2018-09-22T01:39:15.203Z,13.22
2018-09-22T01:40:14.882Z,13.23
2018-09-22T01:41:14.847Z,13.25
2018-09-22T01:42:14.836Z,13.23
2018-09-22T01:43:14.786Z,13.30
2018-09-22T01:44:14.724Z,13.30
2018-09-22T01:45:14.697Z,13.29
2018-09-22T01:46:14.673Z,13.30
2018-09-22T01:47:14.858Z,13.28
2018-09-22T01:48:14.566Z,13.23
2018-09-22T01:49:14.524Z,13.23
2018-09-22T01:50:14.503Z,13.15
2018-09-22T01:51:14.473Z,13.23
2018-09-22T01:52:14.433Z,13.04
2018-09-22T01:53:14.368Z,13.07
2018-09-22T01:54:14.321Z,13.08
2018-09-22T01:55:14.278Z,13.01
2018-09-22T01:56:24.754Z,13.10
2018-09-22T01:57:14.217Z,13.12
2018-09-22T01:58:14.155Z,13.10
2018-09-22T01:59:14.108Z,13.08
2018-09-22T02:00:14.089Z,13.12
2018-09-22T02:01:14.041Z,13.04
2018-09-22T02:02:14.024Z,13.14
2018-09-22T02:03:13.963Z,13.14
2018-09-22T02:04:13.947Z,13.07
2018-09-22T02:05:13.866Z,13.12
2018-09-22T02:06:13.838Z,13.10
2018-09-22T02:07:13.803Z,13.10
2018-09-22T02:08:13.778Z,13.07
2018-09-22T02:09:13.727Z,13.07
2018-09-22T02:10:13.693Z,13.05
2018-09-22T02:11:13.636Z,13.04
2018-09-22T02:12:13.610Z,13.07
2018-09-22T02:13:13.601Z,13.10
2018-09-22T02:14:13.526Z,13.10
2018-09-22T02:15:13.497Z,13.05
2018-09-22T02:16:13.443Z,13.03
2018-09-22T02:17:13.429Z,12.97
2018-09-22T02:18:13.338Z,12.97
2018-09-22T02:19:13.321Z,12.86
2018-09-22T02:20:23.790Z,13.03
2018-09-22T02:21:13.226Z,12.89
2018-09-22T02:22:13.191Z,12.96
2018-09-22T02:23:13.169Z,13.00
2018-09-22T02:24:13.137Z,13.01
2018-09-22T02:25:13.082Z,12.93
2018-09-22T02:26:13.014Z,12.96
2018-09-22T02:27:13.056Z,12.92
2018-09-22T02:28:12.960Z,12.86
2018-09-22T02:29:12.899Z,13.00
2018-09-22T02:30:12.863Z,13.05
2018-09-22T02:31:12.875Z,13.05
2018-09-22T02:32:12.777Z,12.96
2018-09-22T02:33:12.765Z,12.90
2018-09-22T02:34:12.703Z,12.97
2018-09-22T02:35:12.653Z,12.96
2018-09-22T02:36:12.613Z,12.90
2018-09-22T02:37:12.571Z,12.95
2018-09-22T02:38:12.532Z,12.96
2018-09-22T02:39:12.499Z,12.82
2018-09-22T02:40:12.488Z,13.00
2018-09-22T02:41:12.417Z,13.01
2018-09-22T02:42:12.379Z,12.97
2018-09-22T02:43:12.371Z,13.01
2018-09-22T02:44:12.333Z,12.93
2018-09-22T02:45:12.254Z,12.96
2018-09-22T02:46:12.213Z,12.97
2018-09-22T02:47:12.200Z,12.97
2018-09-22T02:48:12.139Z,12.85
2018-09-22T02:49:12.103Z,12.83
2018-09-22T02:50:12.052Z,12.87
2018-09-22T02:51:12.005Z,12.87
2018-09-22T02:52:11.954Z,12.87
2018-09-22T02:53:11.937Z,12.90
2018-09-22T02:54:11.913Z,12.82
2018-09-22T02:55:11.837Z,12.93
2018-09-22T02:56:11.817Z,12.82
2018-09-22T02:57:11.761Z,12.83
2018-09-22T02:58:11.729Z,12.85
2018-09-22T02:59:11.688Z,12.82
2018-09-22T03:00:11.657Z,12.77
2018-09-22T03:01:11.606Z,12.77
2018-09-22T03:02:11.559Z,12.75
2018-09-22T03:03:11.514Z,12.72
2018-09-22T03:04:11.493Z,12.77
2018-09-22T03:05:11.470Z,12.83
2018-09-22T03:06:11.378Z,12.78
2018-09-22T03:07:11.343Z,12.74
2018-09-22T03:08:11.309Z,12.72
2018-09-22T03:09:11.268Z,12.75
2018-09-22T03:10:11.706Z,12.68
2018-09-22T03:11:11.187Z,12.65
2018-09-22T03:12:11.141Z,12.72
2018-09-22T03:13:11.099Z,12.82
2018-09-22T03:14:11.063Z,12.71
2018-09-22T03:15:11.089Z,12.75
2018-09-22T03:16:11.016Z,12.72
2018-09-22T03:17:10.965Z,12.77
2018-09-22T03:18:10.893Z,12.64
2018-09-22T03:19:10.867Z,12.67
2018-09-22T03:20:10.809Z,12.70
2018-09-22T03:21:10.800Z,12.72
2018-09-22T03:22:10.740Z,12.70
2018-09-22T03:23:10.696Z,12.64
2018-09-22T03:24:10.653Z,12.65
2018-09-22T03:25:10.626Z,12.65
2018-09-22T03:26:10.597Z,12.64
2018-09-22T03:27:10.536Z,12.68
2018-09-22T03:28:10.492Z,12.56
2018-09-22T03:29:10.455Z,12.56
2018-09-22T03:30:10.413Z,12.54
2018-09-22T03:31:20.352Z,12.53
2018-09-22T03:32:10.327Z,12.57
2018-09-22T03:33:10.288Z,12.50
2018-09-22T03:34:10.251Z,12.62
2018-09-22T03:35:10.205Z,12.60
2018-09-22T03:36:10.152Z,12.54
2018-09-22T03:37:10.157Z,12.53
2018-09-22T03:38:10.082Z,12.53
2018-09-22T03:39:10.036Z,12.56
2018-09-22T03:40:09.991Z,12.64
2018-09-22T03:41:09.948Z,12.50
2018-09-22T03:42:09.929Z,12.65
2018-09-22T03:43:09.872Z,12.53
2018-09-22T03:44:09.841Z,12.54
2018-09-22T03:45:09.801Z,12.52
2018-09-22T03:46:09.751Z,12.59
2018-09-22T03:47:09.729Z,12.56
2018-09-22T03:48:09.677Z,12.60
2018-09-22T03:49:09.632Z,12.54
2018-09-22T03:50:09.590Z,12.56
2018-09-22T03:51:09.553Z,12.52
2018-09-22T03:52:09.501Z,12.54
2018-09-22T03:53:09.500Z,12.67
2018-09-22T03:54:09.426Z,12.64
2018-09-22T03:55:09.406Z,12.72
2018-09-22T03:56:09.338Z,12.75
2018-09-22T03:57:09.308Z,12.79
2018-09-22T03:58:09.303Z,12.83
2018-09-22T03:59:09.218Z,12.95
2018-09-22T04:00:09.191Z,12.87
2018-09-22T04:01:09.146Z,12.89
2018-09-22T04:02:09.111Z,12.96
2018-09-22T04:03:09.081Z,12.96
2018-09-22T04:04:09.080Z,13.05
2018-09-22T04:05:08.985Z,13.03
2018-09-22T04:06:08.967Z,12.90
2018-09-22T04:07:08.904Z,12.90
2018-09-22T04:08:08.898Z,13.04
2018-09-22T04:09:08.834Z,13.03
2018-09-22T04:10:08.796Z,13.00
2018-09-22T04:11:08.728Z,13.04
2018-09-22T04:12:08.713Z,13.08
2018-09-22T04:13:08.663Z,13.08
2018-09-22T04:14:08.670Z,13.07
2018-09-22T04:15:08.581Z,13.07
2018-09-22T04:16:08.529Z,13.05
2018-09-22T04:17:08.482Z,13.07
2018-09-22T04:18:08.470Z,12.96
2018-09-22T04:19:08.450Z,13.11
2018-09-22T04:20:08.384Z,13.08
2018-09-22T04:21:08.335Z,13.05
2018-09-22T04:22:08.297Z,13.05
2018-09-22T04:23:08.248Z,13.05
2018-09-22T04:24:08.230Z,13.04
2018-09-22T04:25:08.160Z,13.03
2018-09-22T04:26:08.128Z,13.00
2018-09-22T04:27:08.105Z,13.05
2018-09-22T04:28:08.057Z,13.00
2018-09-22T04:29:08.049Z,13.04
2018-09-22T04:30:07.975Z,13.05
2018-09-22T04:31:07.925Z,13.07
2018-09-22T04:32:07.894Z,13.08
2018-09-22T04:33:07.876Z,13.05
2018-09-22T04:34:07.817Z,13.07
2018-09-22T04:35:07.784Z,13.08
2018-09-22T04:36:18.245Z,13.07
2018-09-22T04:37:07.675Z,13.07
2018-09-22T04:38:07.639Z,13.05
2018-09-22T04:39:07.630Z,13.05
2018-09-22T04:40:17.430Z,13.07
2018-09-22T04:41:07.517Z,13.15
2018-09-22T04:42:07.496Z,13.11
2018-09-22T04:43:07.482Z,13.19
2018-09-22T04:44:07.391Z,13.17
2018-09-22T04:45:07.348Z,13.19
2018-09-22T04:46:07.348Z,13.10
2018-09-22T04:47:07.279Z,13.07
2018-09-22T04:48:07.247Z,13.11
2018-09-22T04:49:07.193Z,13.11
2018-09-22T04:50:07.165Z,13.05
2018-09-22T04:51:07.174Z,13.07
2018-09-22T04:52:07.082Z,13.01
2018-09-22T04:53:07.077Z,13.05
2018-09-22T04:54:06.996Z,13.00
2018-09-22T04:55:06.972Z,13.03
2018-09-22T04:56:06.955Z,12.97
2018-09-22T04:57:06.870Z,12.97
2018-09-22T04:58:06.835Z,13.03
2018-09-22T04:59:06.783Z,12.90
2018-09-22T05:00:06.774Z,12.93
2018-09-22T05:01:06.771Z,13.01
2018-09-22T05:02:06.701Z,13.03
2018-09-22T05:03:06.639Z,13.00
2018-09-22T05:04:06.591Z,13.04
2018-09-22T05:05:06.543Z,12.95
2018-09-22T05:06:06.508Z,13.01
2018-09-22T05:07:06.499Z,12.86
2018-09-22T05:08:06.447Z,12.92
2018-09-22T05:09:06.427Z,12.87
2018-09-22T05:10:06.357Z,12.89
2018-09-22T05:11:06.353Z,13.04
2018-09-22T05:12:06.277Z,12.90
2018-09-22T05:13:06.239Z,12.86
2018-09-22T05:14:06.198Z,12.95
2018-09-22T05:15:06.146Z,13.03
2018-09-22T05:16:06.158Z,12.96
2018-09-22T05:17:06.080Z,13.03
2018-09-22T05:18:06.023Z,12.90
2018-09-22T05:19:05.988Z,12.90
2018-09-22T05:20:05.957Z,12.85
2018-09-22T05:21:05.922Z,12.97
2018-09-22T05:22:05.889Z,12.97
2018-09-22T05:23:05.842Z,12.95
2018-09-22T05:24:05.808Z,12.90
2018-09-22T05:25:05.747Z,12.83
2018-09-22T05:26:05.703Z,12.95
2018-09-22T05:27:05.696Z,12.97
2018-09-22T05:28:15.936Z,12.87
2018-09-22T05:29:05.665Z,12.85
2018-09-22T05:30:05.538Z,12.85
2018-09-22T05:31:05.529Z,12.89
2018-09-22T05:32:05.488Z,12.85
2018-09-22T05:33:05.437Z,12.83
2018-09-22T05:34:05.373Z,12.96
2018-09-22T05:35:05.321Z,12.86
2018-09-22T05:36:05.294Z,12.87
2018-09-22T05:37:05.300Z,12.85
2018-09-22T05:38:05.231Z,12.83
2018-09-22T05:39:05.188Z,12.89
2018-09-22T05:40:05.144Z,12.87
2018-09-22T05:41:05.106Z,12.89
2018-09-22T05:42:05.052Z,12.90
2018-09-22T05:43:05.047Z,12.87
2018-09-22T05:44:04.997Z,12.83
2018-09-22T05:45:04.939Z,12.89
2018-09-22T05:46:04.894Z,12.83
2018-09-22T05:47:04.848Z,12.89
2018-09-22T05:48:04.825Z,12.96
2018-09-22T05:49:04.782Z,12.97
2018-09-22T05:50:04.739Z,12.95
2018-09-22T05:51:04.689Z,12.86
2018-09-22T05:52:15.765Z,12.95
2018-09-22T05:53:04.658Z,12.85
2018-09-22T05:54:04.564Z,12.83
2018-09-22T05:55:04.520Z,12.89
2018-09-22T05:56:04.580Z,12.86
2018-09-22T05:57:04.440Z,12.96
2018-09-22T05:58:04.453Z,12.93
2018-09-22T05:59:04.370Z,12.89
2018-09-22T06:00:04.323Z,12.96
2018-09-22T06:01:04.312Z,12.95
2018-09-22T06:02:04.236Z,12.95
2018-09-22T06:03:04.195Z,12.86
2018-09-22T06:04:04.287Z,13.01
2018-09-22T06:05:04.129Z,12.89
2018-09-22T06:06:04.086Z,13.07
2018-09-22T06:07:04.043Z,13.10
2018-09-22T06:08:04.016Z,13.17
2018-09-22T06:09:04.013Z,13.17
2018-09-22T06:10:03.953Z,13.28
2018-09-22T06:11:03.882Z,13.38
2018-09-22T06:12:03.833Z,13.32
2018-09-22T06:13:03.787Z,13.51
2018-09-22T06:14:03.763Z,13.52
2018-09-22T06:15:03.775Z,13.70
2018-09-22T06:16:03.662Z,13.97
2018-09-22T06:17:03.644Z,14.20
2018-09-22T06:18:03.615Z,14.40
2018-09-22T06:19:03.585Z,14.47
2018-09-22T06:20:03.556Z,14.75
2018-09-22T06:21:03.478Z,14.69
2018-09-22T06:22:03.434Z,14.68
2018-09-22T06:23:03.443Z,14.42
2018-09-22T06:24:03.338Z,14.40
2018-09-22T06:25:03.343Z,14.78
2018-09-22T06:26:03.267Z,14.92
2018-09-22T06:27:03.230Z,14.89
2018-09-22T06:28:03.189Z,14.95
2018-09-22T06:29:03.173Z,14.88
2018-09-22T06:30:03.140Z,14.86
2018-09-22T06:31:03.074Z,14.64
2018-09-22T06:32:03.036Z,14.58
2018-09-22T06:33:02.999Z,14.45
2018-09-22T06:34:02.990Z,14.24
2018-09-22T06:35:02.973Z,14.14
2018-09-22T06:36:02.872Z,14.17
2018-09-22T06:37:02.843Z,14.07
2018-09-22T06:38:02.792Z,14.06
2018-09-22T06:39:02.764Z,14.00
2018-09-22T06:40:02.736Z,13.96
2018-09-22T06:41:02.719Z,14.04
2018-09-22T06:42:02.641Z,14.04
2018-09-22T06:43:02.603Z,14.21
2018-09-22T06:44:02.552Z,14.32
2018-09-22T06:45:02.549Z,14.37
2018-09-22T06:46:02.553Z,14.39
2018-09-22T06:47:02.447Z,14.62
2018-09-22T06:48:02.399Z,14.75
2018-09-22T06:49:02.375Z,14.61
2018-09-22T06:50:02.326Z,14.61
2018-09-22T06:51:02.351Z,14.61
2018-09-22T06:52:02.281Z,14.65
2018-09-22T06:53:02.203Z,14.65
2018-09-22T06:54:02.181Z,14.70
2018-09-22T06:55:02.138Z,14.73
2018-09-22T06:56:02.100Z,14.73
2018-09-22T06:57:02.090Z,14.83
2018-09-22T06:58:02.006Z,14.80
2018-09-22T06:59:01.993Z,14.80
2018-09-22T07:00:01.947Z,15.10
2018-09-22T07:01:01.887Z,15.16
2018-09-22T07:02:01.873Z,15.11
2018-09-22T07:03:12.030Z,14.88
2018-09-22T07:04:01.816Z,14.98
2018-09-22T07:05:01.746Z,14.96
2018-09-22T07:06:01.696Z,15.27
2018-09-22T07:07:01.723Z,15.34
2018-09-22T07:08:01.615Z,15.23
2018-09-22T07:09:01.572Z,15.03
2018-09-22T07:10:01.535Z,15.06
2018-09-22T07:11:01.534Z,15.23
2018-09-22T07:12:01.456Z,15.53
2018-09-22T07:13:01.458Z,15.62
2018-09-22T07:14:01.392Z,15.49
2018-09-22T07:15:01.367Z,15.53
2018-09-22T07:16:01.315Z,15.47
2018-09-22T07:17:01.316Z,15.44
2018-09-22T07:18:01.239Z,15.47
2018-09-22T07:19:01.189Z,15.62
2018-09-22T07:20:01.224Z,15.47
2018-09-22T07:21:01.118Z,15.21
2018-09-22T07:22:01.106Z,15.17
2018-09-22T07:23:01.048Z,15.11
2018-09-22T07:24:01.017Z,15.11
2018-09-22T07:25:00.955Z,15.19
2018-09-22T07:26:00.936Z,15.10
2018-09-22T07:27:00.880Z,15.20
2018-09-22T07:28:00.887Z,15.29
2018-09-22T07:29:00.821Z,15.25
2018-09-22T07:30:00.767Z,15.31
2018-09-22T07:31:00.785Z,15.46
2018-09-22T07:32:00.696Z,15.38
2018-09-22T07:33:00.677Z,15.41
2018-09-22T07:34:00.677Z,15.38
2018-09-22T07:35:00.591Z,15.34
2018-09-22T07:36:00.549Z,15.39
2018-09-22T07:37:00.544Z,15.31
2018-09-22T07:38:00.498Z,15.36
2018-09-22T07:39:00.443Z,15.44
2018-09-22T07:40:00.377Z,15.31
2018-09-22T07:41:00.359Z,15.46
2018-09-22T07:42:00.315Z,15.71
2018-09-22T07:43:00.323Z,15.87
2018-09-22T07:44:00.267Z,16.20
2018-09-22T07:45:00.204Z,16.12
2018-09-22T07:46:00.201Z,16.04
2018-09-22T07:47:00.121Z,16.24
2018-09-22T07:48:00.093Z,16.14
2018-09-22T07:49:00.083Z,16.09
2018-09-22T07:49:59.996Z,16.09
2018-09-22T07:50:59.968Z,16.05
2018-09-22T07:51:59.931Z,16.09
2018-09-22T07:52:59.890Z,16.24
2018-09-22T07:53:59.893Z,16.35
2018-09-22T07:54:59.856Z,16.39
2018-09-22T07:55:59.780Z,16.35
2018-09-22T07:56:59.777Z,16.41
2018-09-22T07:57:59.718Z,16.34
2018-09-22T07:58:59.663Z,16.38
2018-09-22T07:59:59.679Z,16.33
2018-09-22T08:00:59.590Z,16.49
2018-09-22T08:01:59.558Z,16.57
2018-09-22T08:02:59.523Z,16.39
2018-09-22T08:03:59.505Z,16.33
2018-09-22T08:04:59.437Z,16.38
2018-09-22T08:05:59.406Z,16.33
2018-09-22T08:06:59.383Z,16.35
2018-09-22T08:07:59.335Z,16.34
2018-09-22T08:08:59.314Z,16.23
2018-09-22T08:09:59.265Z,16.38
2018-09-22T08:10:59.222Z,16.53
2018-09-22T08:11:59.172Z,16.76
2018-09-22T08:13:10.698Z,16.98
2018-09-22T08:13:59.125Z,16.85
2018-09-22T08:14:59.142Z,16.76
2018-09-22T08:15:59.030Z,16.79
2018-09-22T08:16:59.691Z,16.71
2018-09-22T08:17:58.960Z,16.53
2018-09-22T08:18:58.919Z,16.31
2018-09-22T08:19:58.940Z,16.34
2018-09-22T08:20:58.840Z,16.07
2018-09-22T08:21:58.815Z,15.93
2018-09-22T08:22:58.760Z,16.07
2018-09-22T08:23:58.746Z,16.05
2018-09-22T08:24:58.744Z,16.00
2018-09-22T08:25:58.673Z,16.11
2018-09-22T08:26:58.637Z,16.15
2018-09-22T08:27:58.581Z,16.31
2018-09-22T08:28:58.550Z,16.41
2018-09-22T08:29:58.567Z,16.35
2018-09-22T08:30:58.485Z,16.31
2018-09-22T08:31:58.439Z,16.52
2018-09-22T08:32:58.403Z,16.33
2018-09-22T08:33:58.373Z,16.24
2018-09-22T08:34:58.347Z,16.20
2018-09-22T08:35:58.385Z,16.28
2018-09-22T08:37:08.808Z,16.14
2018-09-22T08:37:58.228Z,16.28
2018-09-22T08:38:58.170Z,16.42
2018-09-22T08:39:58.311Z,16.58
2018-09-22T08:40:58.155Z,16.68
2018-09-22T08:41:58.168Z,17.01
2018-09-22T08:42:58.049Z,17.14
2018-09-22T08:43:58.066Z,17.30
2018-09-22T08:44:58.016Z,17.41
2018-09-22T08:45:57.953Z,17.58
2018-09-22T08:46:57.879Z,17.84
2018-09-22T08:48:10.353Z,17.93
2018-09-22T08:48:57.837Z,17.87
2018-09-22T08:49:57.864Z,17.93
2018-09-22T08:50:57.805Z,18.07
2018-09-22T08:51:57.713Z,18.23
2018-09-22T08:52:57.659Z,18.25
2018-09-22T08:53:57.623Z,18.35
2018-09-22T08:54:57.587Z,18.55
2018-09-22T08:55:57.620Z,18.41
2018-09-22T08:56:57.507Z,18.81
2018-09-22T08:57:57.521Z,19.07
2018-09-22T08:58:57.451Z,19.22
2018-09-22T08:59:57.421Z,19.32
2018-09-22T09:01:06.156Z,19.59
2018-09-22T09:01:57.355Z,19.80
2018-09-22T09:02:57.300Z,20.11
2018-09-22T09:03:57.273Z,19.63
2018-09-22T09:04:57.289Z,19.55
2018-09-22T09:05:57.240Z,19.48
2018-09-22T09:06:57.185Z,19.41
2018-09-22T09:07:57.135Z,19.56
2018-09-22T09:08:57.125Z,19.78
2018-09-22T09:09:57.061Z,19.51
2018-09-22T09:10:57.036Z,19.16
2018-09-22T09:11:57.025Z,18.99
2018-09-22T09:12:56.968Z,19.13
2018-09-22T09:13:56.943Z,19.19
2018-09-22T09:14:56.906Z,19.56
2018-09-22T09:15:56.856Z,19.51
2018-09-22T09:16:56.874Z,19.40
2018-09-22T09:17:56.791Z,19.78
2018-09-22T09:18:56.779Z,20.13
2018-09-22T09:19:56.719Z,20.26
2018-09-22T09:20:56.692Z,20.70
2018-09-22T09:21:56.684Z,20.82
2018-09-22T09:22:56.626Z,20.87
2018-09-22T09:23:56.603Z,20.88
2018-09-22T09:24:56.573Z,20.70
2018-09-22T09:25:56.527Z,20.91
2018-09-22T09:26:56.507Z,20.59
2018-09-22T09:27:56.470Z,20.38
2018-09-22T09:28:56.428Z,20.70
2018-09-22T09:29:56.405Z,20.69
2018-09-22T09:30:56.352Z,20.76
2018-09-22T09:31:56.330Z,20.77
2018-09-22T09:32:56.322Z,21.07
2018-09-22T09:33:56.273Z,21.19
2018-09-22T09:34:56.224Z,20.99
2018-09-22T09:35:56.215Z,20.67
2018-09-22T09:36:56.169Z,20.69
2018-09-22T09:37:56.178Z,20.73
2018-09-22T09:38:56.092Z,20.39
2018-09-22T09:39:56.059Z,20.21
2018-09-22T09:40:56.068Z,20.38
2018-09-22T09:41:56.023Z,20.29
2018-09-22T09:42:56.009Z,20.20
2018-09-22T09:43:55.931Z,20.17
2018-09-22T09:44:55.899Z,19.71
2018-09-22T09:45:55.874Z,19.84
2018-09-22T09:46:55.850Z,19.77
2018-09-22T09:47:55.838Z,19.47
2018-09-22T09:48:55.786Z,19.31
2018-09-22T09:49:55.736Z,19.51
2018-09-22T09:50:55.706Z,19.40
2018-09-22T09:51:55.661Z,19.40
2018-09-22T09:52:55.638Z,19.43
2018-09-22T09:53:55.648Z,19.25
2018-09-22T09:54:55.660Z,19.25
2018-09-22T09:55:55.535Z,18.98
2018-09-22T09:56:55.507Z,18.94
2018-09-22T09:57:55.485Z,18.98
2018-09-22T09:58:55.461Z,19.10
2018-09-22T09:59:55.410Z,19.21
2018-09-22T10:00:55.373Z,19.10
2018-09-22T10:01:55.355Z,19.25
2018-09-22T10:02:55.292Z,19.28
2018-09-22T10:03:55.292Z,19.25
2018-09-22T10:04:55.247Z,19.26
2018-09-22T10:05:55.249Z,19.10
2018-09-22T10:06:55.180Z,19.19
2018-09-22T10:07:55.166Z,19.16
2018-09-22T10:08:55.139Z,19.19
2018-09-22T10:09:55.065Z,19.31
2018-09-22T10:10:55.031Z,19.29
2018-09-22T10:11:55.068Z,19.39
2018-09-22T10:12:54.968Z,19.44
2018-09-22T10:13:54.928Z,19.43
2018-09-22T10:14:54.916Z,19.40
2018-09-22T10:15:54.857Z,19.14
2018-09-22T10:16:54.824Z,18.94
2018-09-22T10:17:54.821Z,18.94
2018-09-22T10:18:54.759Z,19.14
2018-09-22T10:19:54.746Z,19.04
2018-09-22T10:20:54.686Z,18.91
2018-09-22T10:21:54.650Z,18.73
2018-09-22T10:22:54.616Z,18.73
2018-09-22T10:23:54.586Z,19.25
2018-09-22T10:24:54.581Z,19.26
2018-09-22T10:25:54.526Z,19.39
2018-09-22T10:26:54.491Z,19.40
2018-09-22T10:27:54.491Z,19.28
2018-09-22T10:28:54.450Z,19.29
2018-09-22T10:29:54.380Z,19.48
2018-09-22T10:30:54.369Z,19.51
2018-09-22T10:31:54.366Z,19.66
2018-09-22T10:32:54.293Z,19.68
2018-09-22T10:33:54.241Z,20.05
2018-09-22T10:34:54.208Z,20.23
2018-09-22T10:35:54.192Z,20.14
2018-09-22T10:36:54.166Z,20.23
2018-09-22T10:37:54.107Z,20.08
2018-09-22T10:38:54.072Z,19.95
2018-09-22T10:39:54.120Z,19.91
2018-09-22T10:40:54.039Z,19.92
2018-09-22T10:41:53.967Z,19.78
2018-09-22T10:42:53.948Z,19.84
2018-09-22T10:43:53.910Z,19.94
2018-09-22T10:44:53.879Z,20.02
2018-09-22T10:45:53.862Z,20.16
2018-09-22T10:46:53.828Z,20.06
2018-09-22T10:47:53.771Z,19.86
2018-09-22T10:48:53.726Z,19.63
2018-09-22T10:49:53.716Z,19.46
2018-09-22T10:50:53.664Z,19.32
2018-09-22T10:51:53.662Z,19.22
2018-09-22T10:52:53.658Z,19.04
2018-09-22T10:53:53.568Z,18.88
2018-09-22T10:54:53.536Z,19.13
2018-09-22T10:55:53.496Z,19.28
2018-09-22T10:56:53.524Z,19.18
2018-09-22T10:57:53.433Z,19.14
2018-09-22T10:58:53.437Z,19.19
2018-09-22T10:59:53.368Z,19.26
2018-09-22T11:00:53.322Z,19.32
2018-09-22T11:01:53.322Z,19.41
2018-09-22T11:02:53.266Z,19.19
2018-09-22T11:03:53.265Z,18.98
2018-09-22T11:04:53.195Z,19.02
2018-09-22T11:05:53.158Z,19.18
2018-09-22T11:06:53.156Z,19.19
2018-09-22T11:07:53.081Z,19.29
2018-09-22T11:08:53.035Z,19.43
2018-09-22T11:09:53.023Z,19.43
2018-09-22T11:10:53.002Z,19.40
2018-09-22T11:11:52.953Z,19.46
2018-09-22T11:12:52.914Z,19.46
2018-09-22T11:13:52.865Z,19.39
2018-09-22T11:14:52.843Z,19.40
2018-09-22T11:15:52.800Z,19.25
2018-09-22T11:16:52.791Z,19.14
2018-09-22T11:17:52.744Z,19.08
2018-09-22T11:18:52.713Z,18.99
2018-09-22T11:19:52.676Z,18.84
2018-09-22T11:20:52.652Z,18.70
2018-09-22T11:21:52.594Z,18.57
2018-09-22T11:22:52.566Z,18.48
2018-09-22T11:23:52.574Z,18.54
2018-09-22T11:24:52.505Z,18.76
2018-09-22T11:25:52.451Z,18.69
2018-09-22T11:26:52.489Z,18.82
2018-09-22T11:27:52.406Z,18.84
2018-09-22T11:28:52.367Z,18.82
2018-09-22T11:29:52.333Z,19.07
2018-09-22T11:30:52.280Z,19.11
2018-09-22T11:31:52.295Z,19.16
2018-09-22T11:32:52.222Z,18.90
2018-09-22T11:33:52.176Z,18.87
2018-09-22T11:34:52.131Z,18.94
2018-09-22T11:35:52.116Z,19.22
2018-09-22T11:36:52.120Z,19.18
2018-09-22T11:37:52.038Z,19.29
2018-09-22T11:38:52.018Z,19.39
2018-09-22T11:39:51.977Z,19.55
2018-09-22T11:40:51.921Z,19.51
2018-09-22T11:41:51.944Z,19.46
2018-09-22T11:42:51.884Z,19.44
2018-09-22T11:43:51.830Z,19.41
2018-09-22T11:44:51.789Z,19.41
2018-09-22T11:45:51.766Z,19.54
2018-09-22T11:46:51.715Z,19.58
2018-09-22T11:47:51.698Z,19.39
2018-09-22T11:48:51.655Z,19.25
2018-09-22T11:49:51.652Z,19.22
2018-09-22T11:50:51.577Z,19.22
2018-09-22T11:51:51.538Z,19.26
2018-09-22T11:52:51.543Z,19.31
2018-09-22T11:53:51.474Z,19.46
2018-09-22T11:54:51.443Z,19.43
2018-09-22T11:56:01.358Z,19.40
2018-09-22T11:56:51.408Z,19.39
2018-09-22T11:57:51.415Z,19.41
2018-09-22T11:58:51.344Z,19.50
2018-09-22T11:59:51.260Z,19.39
2018-09-22T12:00:51.221Z,19.18
2018-09-22T12:01:51.198Z,19.28
2018-09-22T12:02:51.197Z,18.85
2018-09-22T12:03:51.122Z,18.62
2018-09-22T12:04:51.102Z,18.62
2018-09-22T12:05:51.107Z,18.51
2018-09-22T12:06:51.125Z,18.52
2018-09-22T12:07:51.012Z,18.62
2018-09-22T12:09:01.316Z,18.73
2018-09-22T12:09:50.976Z,18.66
2018-09-22T12:10:50.888Z,18.76
2018-09-22T12:11:51.309Z,18.67
2018-09-22T12:12:50.827Z,18.72
2018-09-22T12:13:50.768Z,18.69
2018-09-22T12:14:50.737Z,18.62
2018-09-22T12:15:50.696Z,18.54
2018-09-22T12:16:50.675Z,18.51
2018-09-22T12:17:50.624Z,18.37
2018-09-22T12:18:50.641Z,18.29
2018-09-22T12:19:50.559Z,18.27
2018-09-22T12:20:50.544Z,18.03
2018-09-22T12:21:50.482Z,17.89
2018-09-22T12:22:50.509Z,17.90
2018-09-22T12:23:50.429Z,17.89
2018-09-22T12:24:50.380Z,17.74
2018-09-22T12:25:50.344Z,17.81
2018-09-22T12:26:50.309Z,17.75
2018-09-22T12:27:50.287Z,17.74
2018-09-22T12:28:50.281Z,17.64
2018-09-22T12:29:50.228Z,17.66
2018-09-22T12:30:50.188Z,17.71
2018-09-22T12:31:50.152Z,17.64
2018-09-22T12:32:50.096Z,17.66
2018-09-22T12:33:50.049Z,17.68
2018-09-22T12:34:50.042Z,17.66
2018-09-22T12:35:49.972Z,17.72
2018-09-22T12:36:49.960Z,17.72
2018-09-22T12:37:49.904Z,17.74
2018-09-22T12:38:49.878Z,17.72
2018-09-22T12:39:49.865Z,17.82
2018-09-22T12:40:49.842Z,17.79
2018-09-22T12:41:49.760Z,17.74
2018-09-22T12:42:49.720Z,17.84
2018-09-22T12:43:49.693Z,17.84
2018-09-22T12:44:49.736Z,17.78
2018-09-22T12:45:49.622Z,17.86
2018-09-22T12:46:49.585Z,17.75
2018-09-22T12:47:49.560Z,17.71
2018-09-22T12:48:49.496Z,17.74
2018-09-22T12:49:49.475Z,17.81
2018-09-22T12:50:49.445Z,17.75
2018-09-22T12:51:49.428Z,17.75